WAPP/AMQ METAR and TAF weather

Enter ICAO airport designator
Station Type Date Time Source
WAPP METAR 2020/09/22 06:00 UTC NOAA

WAPP 220600Z 16004KT 120V240 9999 SCT017 28/25 Q1008 NOSIG


Station Type Date Time Source
WAPP Decoded METAR 2020/09/22 06:00 UTC NOAA

Ambon / Pattimura, Indonesia (WAPP) 03-42S 128-05E 12M
Sep 22, 2020 - 02:00 AM EDT / 2020.09.22 0600 UTC
Wind: from the SSE (160 degrees) at 5 MPH (4 KT) (direction variable):0
Visibility: greater than 7 mile(s):0
Sky conditions: partly cloudy
Temperature: 82 F (28 C)
Dew Point: 77 F (25 C)
Relative Humidity: 83%
Pressure (altimeter): 29.77 in. Hg (1008 hPa)
ob: WAPP 220600Z 16004KT 120V240 9999 SCT017 28/25 Q1008 NOSIG
cycle: 6

Station Type Date Time Source
WAPP TAF 2015/06/30 00:57 UTC NOAA

TAF WAPP 302300Z 0100/0124 34006KT 9999 SCT018
TEMPO 0101/0104 7000 -RA BKN017
BECMG 0105/0107 21006KT
BECMG 0109/0111 32006KT

Example: see airport list